»·PEaware :: N36RR KAZC-KBLH

N36RR :: KAZC-KBLH

FLIGHT INFORMATION

Flight Status: Arrived
Operator: Privately registered:
United States
More flights under this callsign
Pilot: Tanner C. (11250)
Aircraft: Unknown
(C90)
More flights by this aircraft type
Origin: KAZC Colorado City Mun
United States
Destination: KBLH Blythe
United States
More flights between these airports :: More routes between these airports
Route: +PGS BLH
File this flight plan on PilotEdge
Remarks:
Altitude:
(Current/Filed)
22,000ft
Speed:
(Current/Filed)
300kts
Departed: 06-Jun-18 03:46 PM
Arrived: 06-Jun-18 05:02 PM
Distance/Time
Traveled:
217nm/1:16
Distance/Time
To Go:
Arrived

Flight Plot

Page will automatically refresh every two minutes.

Flight plan parsing failed; only flown route is shown


Map Options




Map Legend


Flown Route
Filed Route
Departure Airport
Arrival Airport
Navaid (VOR, NDB)
Fix

Horizontal Profiles

Position Reports

Time Latitude Longitude Heading Altitude Ground
Speed
06-Jun-18 15:14 36.954968 -113.006150 32 4852ft 0kts
06-Jun-18 15:15 36.954968 -113.006150 32 4852ft 0kts
06-Jun-18 15:16 36.954968 -113.006150 32 4852ft 0kts
06-Jun-18 15:17 36.954968 -113.006150 32 4852ft 0kts
06-Jun-18 15:18 36.954968 -113.006150 32 4852ft 0kts
06-Jun-18 15:19 36.954968 -113.006150 32 4852ft 0kts
06-Jun-18 15:20 36.954968 -113.006150 32 4852ft 0kts
06-Jun-18 15:21 36.954968 -113.006150 32 4852ft 0kts
06-Jun-18 15:22 36.954968 -113.006150 32 4852ft 0kts
06-Jun-18 15:23 36.954968 -113.006150 32 4852ft 0kts
06-Jun-18 15:25 36.954968 -113.006150 32 4852ft 0kts
06-Jun-18 15:26 36.959345 -113.015383 32 4849ft 0kts
06-Jun-18 15:27 36.959345 -113.015383 32 4849ft 0kts
06-Jun-18 15:28 36.959345 -113.015383 32 4849ft 0kts
06-Jun-18 15:29 36.959345 -113.015383 32 4849ft 0kts
06-Jun-18 15:30 36.959385 -113.015352 31 4849ft 0kts
06-Jun-18 15:31 36.959385 -113.015352 31 4849ft 0kts
06-Jun-18 15:32 36.959385 -113.015352 31 4849ft 0kts
06-Jun-18 15:33 36.957575 -113.011469 124 4852ft 26kts
06-Jun-18 15:34 36.954954 -113.006342 117 4852ft 0kts
06-Jun-18 15:35 36.954954 -113.006342 117 4852ft 0kts
06-Jun-18 15:36 36.954954 -113.006342 117 4852ft 0kts
06-Jun-18 15:37 36.954954 -113.006342 117 4852ft 0kts
06-Jun-18 15:38 36.954954 -113.006342 117 4852ft 0kts
06-Jun-18 15:39 36.954954 -113.006342 117 4852ft 0kts
06-Jun-18 15:40 36.954954 -113.006342 117 4852ft 0kts
06-Jun-18 15:41 36.954954 -113.006342 117 4852ft 0kts
06-Jun-18 15:42 36.954954 -113.006342 117 4852ft 0kts
06-Jun-18 15:43 36.954954 -113.006342 117 4852ft 0kts
06-Jun-18 15:44 36.954954 -113.006342 117 4852ft 0kts
06-Jun-18 15:45 36.954954 -113.006342 117 4852ft 0kts
06-Jun-18 15:46 36.959014 -113.012787 299 4852ft 94kts
06-Jun-18 15:47 36.978399 -113.043600 322 5644ft 127kts
06-Jun-18 15:48 36.989464 -113.015314 108 6976ft 122kts
06-Jun-18 15:49 36.979748 -112.971637 110 7974ft 143kts
06-Jun-18 15:50 36.968045 -112.920601 110 9123ft 158kts
06-Jun-18 15:51 36.949331 -112.875271 179 10296ft 147kts
06-Jun-18 15:52 36.914883 -112.899311 205 11388ft 147kts
06-Jun-18 15:53 36.877930 -112.918107 203 12403ft 149kts
06-Jun-18 15:54 36.840884 -112.936927 202 13464ft 144kts
06-Jun-18 15:55 36.803431 -112.955768 203 14352ft 146kts
06-Jun-18 15:56 36.765960 -112.974697 203 15176ft 147kts
06-Jun-18 15:57 36.728290 -112.993688 203 15933ft 148kts
06-Jun-18 15:58 36.689853 -113.013057 203 16480ft 157kts
06-Jun-18 15:59 36.645855 -113.035244 203 16481ft 183kts
06-Jun-18 16:00 36.597215 -113.059712 203 16478ft 194kts
06-Jun-18 16:01 36.547057 -113.084899 203 16476ft 198kts
06-Jun-18 16:02 36.497033 -113.109950 203 16936ft 178kts
06-Jun-18 16:03 36.451643 -113.132659 203 17448ft 169kts
06-Jun-18 16:04 36.409848 -113.153543 203 18121ft 160kts
06-Jun-18 16:05 36.369175 -113.173558 207 18784ft 157kts
06-Jun-18 16:06 36.328641 -113.193980 207 19493ft 158kts
06-Jun-18 16:07 36.286340 -113.215176 207 20188ft 170kts
06-Jun-18 16:08 36.241662 -113.237416 207 20887ft 176kts
06-Jun-18 16:09 36.206888 -113.254699 207 21413ft 177kts
06-Jun-18 16:10 36.161337 -113.277317 207 21987ft 182kts
06-Jun-18 16:11 36.111414 -113.302152 206 21996ft 204kts
06-Jun-18 16:12 36.057601 -113.328791 206 21999ft 213kts
06-Jun-18 16:13 36.002615 -113.355991 206 21992ft 216kts
06-Jun-18 16:14 35.947369 -113.383261 206 22102ft 214kts
06-Jun-18 16:15 35.892722 -113.410224 206 22096ft 218kts
06-Jun-18 16:16 35.837179 -113.437594 206 21964ft 223kts
06-Jun-18 16:17 35.779490 -113.465941 206 21911ft 222kts
06-Jun-18 16:18 35.722527 -113.493916 206 21911ft 221kts
06-Jun-18 16:19 35.666118 -113.521579 206 21910ft 219kts
06-Jun-18 16:20 35.610152 -113.550515 210 21911ft 218kts
06-Jun-18 16:21 35.556003 -113.582928 210 21910ft 218kts
06-Jun-18 16:22 35.501667 -113.615405 210 21910ft 218kts
06-Jun-18 16:23 35.447188 -113.647926 210 21909ft 218kts
06-Jun-18 16:24 35.398011 -113.677229 209 21914ft 219kts
06-Jun-18 16:25 35.344610 -113.709023 209 21913ft 218kts
06-Jun-18 16:26 35.291641 -113.740500 209 21914ft 219kts
06-Jun-18 16:27 35.237482 -113.772638 209 21913ft 219kts
06-Jun-18 16:28 35.182924 -113.804966 209 21913ft 219kts
06-Jun-18 16:29 35.128235 -113.837322 209 21913ft 219kts
06-Jun-18 16:30 35.073600 -113.869599 209 21912ft 219kts
06-Jun-18 16:31 35.019218 -113.901678 209 21911ft 217kts
06-Jun-18 16:32 34.965042 -113.933590 209 21912ft 218kts
06-Jun-18 16:33 34.910582 -113.965620 209 21911ft 219kts
06-Jun-18 16:34 34.861688 -113.994326 209 21915ft 216kts
06-Jun-18 16:35 34.807290 -114.026246 209 21914ft 218kts
06-Jun-18 16:36 34.752552 -114.058309 209 21815ft 222kts
06-Jun-18 16:37 34.697054 -114.090756 209 21725ft 221kts
06-Jun-18 16:38 34.641806 -114.123009 209 21723ft 220kts
06-Jun-18 16:39 34.587127 -114.154888 209 21723ft 220kts
06-Jun-18 16:40 34.532300 -114.186807 209 21723ft 219kts
06-Jun-18 16:41 34.477508 -114.218848 212 21721ft 218kts
06-Jun-18 16:42 34.422892 -114.251006 209 21722ft 219kts
06-Jun-18 16:43 34.368802 -114.282759 210 21721ft 217kts
06-Jun-18 16:44 34.314411 -114.314578 209 21722ft 218kts
06-Jun-18 16:45 34.259957 -114.346299 209 21721ft 219kts
06-Jun-18 16:46 34.205300 -114.378078 209 21721ft 219kts
06-Jun-18 16:47 34.150744 -114.409749 209 21721ft 219kts
06-Jun-18 16:48 34.096085 -114.441436 209 21720ft 217kts
06-Jun-18 16:49 34.041551 -114.473121 210 21365ft 230kts
06-Jun-18 16:50 33.978116 -114.509938 209 19406ft 273kts
06-Jun-18 16:51 33.911029 -114.548606 208 17378ft 256kts
06-Jun-18 16:52 33.854063 -114.581450 208 14428ft 253kts
06-Jun-18 16:53 33.789439 -114.618731 207 11287ft 256kts
06-Jun-18 16:54 33.735949 -114.661326 215 8737ft 249kts
06-Jun-18 16:55 33.685843 -114.704984 234 6314ft 243kts
06-Jun-18 16:56 33.653347 -114.765079 192 4047ft 233kts
06-Jun-18 16:57 33.610962 -114.740002 75 3968ft 190kts
06-Jun-18 16:58 33.649062 -114.704736 21 3919ft 171kts
06-Jun-18 16:59 33.693180 -114.700267 62 2378ft 191kts
06-Jun-18 17:00 33.670716 -114.684433 241 2012ft 161kts
06-Jun-18 17:01 33.647970 -114.715831 191 922ft 159kts
06-Jun-18 17:02 33.614692 -114.716846 172 394ft 23kts
06-Jun-18 17:03 33.614550 -114.712731 88 394ft 8kts
06-Jun-18 17:04 33.614619 -114.712222 357 394ft 0kts
06-Jun-18 17:05 33.614618 -114.712222 357 394ft 0kts
06-Jun-18 17:06 33.614618 -114.712222 357 394ft 0kts
06-Jun-18 17:07 33.614618 -114.712222 357 394ft 0kts

Navigation Log

Ident Type
Flight plan parsing failed, navigation log unavailable